Time;durP1;ratioP1;P1;durP2;ratioP2;P2;SDS_P1;SDS_P2;PMS_P1;PMS_P2;Temp;Humidity;BMP_temperature;BMP_pressure;BME280_temperature;BME280_humidity;BME280_pressure;Samples;Min_cycle;Max_cycle;Signal;HPM_P1;HPM_P2
2022/08/28 00:02:08;;;;;;;3.38;2.60;;;22.60;70.50;;;;;;5052928;28;20044;-63
2022/08/28 00:04:35;;;;;;;2.35;2.15;;;22.60;70.50;;;;;;5057666;28;20032;-62
2022/08/28 00:07:01;;;;;;;3.10;2.15;;;22.50;70.60;;;;;;5057115;28;20192;-62
2022/08/28 00:09:27;;;;;;;3.60;2.88;;;22.50;70.60;;;;;;5057758;28;20538;-62
2022/08/28 00:11:53;;;;;;;3.92;2.53;;;22.60;70.80;;;;;;5057201;28;20025;-62
2022/08/28 00:14:19;;;;;;;5.32;2.80;;;22.60;70.80;;;;;;5058571;28;20025;-62
2022/08/28 00:16:49;;;;;;;3.78;2.50;;;22.60;70.80;;;;;;5035389;28;20025;-63
2022/08/28 00:19:17;;;;;;;2.70;2.50;;;22.60;71.00;;;;;;5053911;28;20033;-63
2022/08/28 00:21:43;;;;;;;2.75;2.28;;;22.60;71.10;;;;;;5056229;28;20082;-62
2022/08/28 00:24:09;;;;;;;5.18;2.30;;;22.60;71.20;;;;;;5039255;28;20029;-62
2022/08/28 00:29:19;;;;;;;3.65;2.40;;;22.70;71.50;;;;;;5057941;28;20059;-63
2022/08/28 00:31:45;;;;;;;4.10;2.80;;;22.70;71.60;;;;;;5058160;28;20009;-62
2022/08/28 00:34:11;;;;;;;3.25;2.58;;;22.70;71.70;;;;;;5058352;28;20071;-62
2022/08/28 00:36:37;;;;;;;3.13;2.30;;;22.80;71.90;;;;;;5058634;28;20051;-63
2022/08/28 00:39:05;;;;;;;4.07;2.60;;;22.80;72.10;;;;;;5057585;28;20028;-62
2022/08/28 00:41:31;;;;;;;3.75;2.60;;;22.80;72.20;;;;;;5039328;28;20040;-62
2022/08/28 00:44:17;;;;;;;4.32;2.45;;;22.80;72.10;;;;;;5056479;28;20064;-61
2022/08/28 00:46:46;;;;;;;2.85;2.40;;;22.90;72.10;;;;;;5053480;28;20036;-63
2022/08/28 00:49:13;;;;;;;3.75;2.60;;;22.90;72.00;;;;;;5056409;28;20083;-61
2022/08/28 00:54:25;;;;;;;3.67;2.63;;;22.90;72.20;;;;;;5063249;28;20405;-62
2022/08/28 00:56:53;;;;;;;3.70;2.70;;;22.90;72.00;;;;;;5056631;28;20051;-62
2022/08/28 00:59:22;;;;;;;5.07;3.20;;;22.90;71.70;;;;;;5043571;28;20540;-63
2022/08/28 01:01:53;;;;;;;7.18;3.20;;;23.00;71.30;;;;;;5048069;28;20041;-63
2022/08/28 01:04:20;;;;;;;4.60;2.95;;;22.90;71.40;;;;;;5055315;28;20033;-63
2022/08/28 01:06:48;;;;;;;3.50;2.72;;;22.90;71.70;;;;;;5052899;28;20504;-62
2022/08/28 01:09:14;;;;;;;5.55;3.00;;;22.90;71.90;;;;;;5050212;28;20086;-62
2022/08/28 01:11:43;;;;;;;6.40;3.05;;;22.90;72.40;;;;;;5032507;28;20086;-63
2022/08/28 01:14:11;;;;;;;4.10;2.55;;;22.90;72.50;;;;;;5053993;28;20044;-62
2022/08/28 01:16:38;;;;;;;4.53;2.40;;;22.90;72.70;;;;;;5053501;28;20069;-62
2022/08/28 01:19:08;;;;;;;3.30;2.85;;;22.80;72.70;;;;;;5052928;28;20025;-62
2022/08/28 01:21:57;;;;;;;2.67;2.47;;;22.80;72.80;;;;;;5052062;28;20036;-62
2022/08/28 01:24:23;;;;;;;3.17;2.60;;;22.80;72.80;;;;;;5047415;28;20078;-62
2022/08/28 01:26:49;;;;;;;3.63;2.63;;;22.80;73.10;;;;;;5051766;28;20033;-62
2022/08/28 01:29:15;;;;;;;5.45;2.97;;;22.80;73.20;;;;;;5053585;28;20029;-62
2022/08/28 01:31:41;;;;;;;3.15;2.47;;;22.80;73.50;;;;;;5050311;28;20040;-62
2022/08/28 01:34:11;;;;;;;2.80;2.50;;;22.70;73.70;;;;;;5053280;28;20029;-62
2022/08/28 01:36:37;;;;;;;3.92;2.22;;;22.70;74.10;;;;;;5053237;28;20037;-63
2022/08/28 01:39:09;;;;;;;3.65;2.35;;;22.70;73.90;;;;;;5053060;28;20029;-63
2022/08/28 01:41:39;;;;;;;3.90;2.60;;;22.70;74.30;;;;;;5036237;28;20110;-63
2022/08/28 01:44:05;;;;;;;2.53;2.30;;;22.70;74.50;;;;;;5047705;28;20052;-63
2022/08/28 01:46:31;;;;;;;3.67;2.40;;;22.70;74.60;;;;;;5050206;28;20029;-62
2022/08/28 01:48:56;;;;;;;3.10;2.38;;;22.70;74.80;;;;;;5060220;28;20368;-63
2022/08/28 01:51:22;;;;;;;4.55;2.38;;;22.70;74.90;;;;;;5054275;28;20036;-62
2022/08/28 01:53:48;;;;;;;2.33;2.10;;;22.70;74.80;;;;;;5053083;28;20050;-62
2022/08/28 01:56:15;;;;;;;4.75;2.70;;;22.70;74.70;;;;;;5053743;28;20415;-63
2022/08/28 01:58:41;;;;;;;3.60;2.70;;;22.60;74.60;;;;;;5053849;28;20358;-62
2022/08/28 02:01:12;;;;;;;3.08;2.40;;;22.60;74.80;;;;;;5052903;28;20025;-63
2022/08/28 02:03:38;;;;;;;;;;;22.50;74.60;;;;;;5052605;28;20060;-62
2022/08/28 02:06:05;;;;;;;3.75;2.20;;;22.50;74.40;;;;;;5043288;28;19905;-63
2022/08/28 02:08:30;;;;;;;2.80;2.28;;;22.40;74.40;;;;;;5052675;28;20063;-62
2022/08/28 02:10:56;;;;;;;2.95;2.15;;;22.30;74.80;;;;;;5046675;28;20056;-62
2022/08/28 02:13:22;;;;;;;2.53;2.25;;;22.30;74.80;;;;;;5054549;28;20021;-62
2022/08/28 02:15:47;;;;;;;3.60;2.80;;;22.30;74.90;;;;;;5053318;28;20078;-62
2022/08/28 02:18:14;;;;;;;4.05;2.42;;;22.20;74.90;;;;;;5052839;28;20024;-62
2022/08/28 02:20:41;;;;;;;2.97;2.50;;;22.20;74.80;;;;;;5052612;28;20029;-62
2022/08/28 02:23:08;;;;;;;7.90;2.95;;;22.20;74.90;;;;;;5052413;28;20488;-63
2022/08/28 02:25:34;;;;;;;4.18;2.80;;;22.20;75.10;;;;;;5052472;28;20532;-62
2022/08/28 02:28:00;;;;;;;3.67;2.60;;;22.10;75.80;;;;;;5033852;28;20043;-62
2022/08/28 02:30:26;;;;;;;4.72;2.78;;;22.10;75.20;;;;;;5030861;28;20028;-63
2022/08/28 02:32:52;;;;;;;3.45;2.40;;;22.10;75.20;;;;;;5053481;28;20146;-62
2022/08/28 02:35:21;;;;;;;2.47;2.22;;;22.10;75.30;;;;;;5052916;28;20122;-62
2022/08/28 02:37:48;;;;;;;3.75;2.80;;;22.10;75.30;;;;;;5053187;28;20021;-62
2022/08/28 02:40:16;;;;;;;4.15;2.70;;;22.10;75.50;;;;;;5052760;28;20056;-63
2022/08/28 02:42:43;;;;;;;3.13;2.35;;;22.10;75.30;;;;;;5034477;28;20503;-63
2022/08/28 02:45:10;;;;;;;3.65;2.88;;;22.00;75.40;;;;;;5048025;28;20025;-63
2022/08/28 02:47:41;;;;;;;4.18;2.85;;;22.00;75.50;;;;;;5052965;28;20546;-62
2022/08/28 02:50:09;;;;;;;3.83;2.55;;;22.00;75.60;;;;;;5041926;28;20135;-63
2022/08/28 02:52:36;;;;;;;3.30;2.42;;;22.00;75.80;;;;;;5053069;28;20054;-62
2022/08/28 02:55:03;;;;;;;3.22;2.53;;;22.00;75.70;;;;;;5051166;28;20021;-62
2022/08/28 02:57:29;;;;;;;3.85;2.40;;;22.00;75.80;;;;;;5054081;28;20020;-62
2022/08/28 02:59:55;;;;;;;2.72;2.35;;;22.00;75.80;;;;;;5039194;28;20041;-62
2022/08/28 03:02:21;;;;;;;2.95;2.47;;;22.00;76.00;;;;;;5052068;28;20049;-62
2022/08/28 03:04:47;;;;;;;5.13;3.05;;;22.00;76.00;;;;;;5057006;28;20053;-62
2022/08/28 03:07:14;;;;;;;3.92;2.65;;;22.10;75.90;;;;;;5049066;28;20029;-62
2022/08/28 03:09:43;;;;;;;3.20;2.42;;;22.00;75.70;;;;;;5043125;28;20030;-63
2022/08/28 03:12:09;;;;;;;4.75;2.75;;;22.00;75.50;;;;;;5043605;28;20025;-63
2022/08/28 03:14:36;;;;;;;4.45;3.40;;;22.00;75.40;;;;;;5044155;28;20468;-62
2022/08/28 03:17:01;;;;;;;2.70;2.30;;;22.00;75.60;;;;;;5034819;28;20476;-62
2022/08/28 03:19:27;;;;;;;3.58;2.70;;;22.00;75.70;;;;;;5048018;28;20086;-62
2022/08/28 03:21:53;;;;;;;4.68;2.70;;;22.00;75.80;;;;;;5052915;28;20029;-62
2022/08/28 03:24:19;;;;;;;3.20;2.33;;;22.00;75.70;;;;;;5033073;28;20037;-63
2022/08/28 03:26:45;;;;;;;3.42;2.05;;;22.00;75.70;;;;;;5052153;28;20021;-63
2022/08/28 03:29:11;;;;;;;3.30;2.40;;;22.00;75.70;;;;;;5050304;28;20513;-62
2022/08/28 03:31:37;;;;;;;3.90;2.13;;;22.00;75.70;;;;;;5052293;28;20528;-62
2022/08/28 03:34:04;;;;;;;3.25;2.20;;;22.10;75.80;;;;;;5044482;28;20029;-62
2022/08/28 03:36:30;;;;;;;4.55;2.60;;;22.10;76.30;;;;;;5051364;28;20033;-63
2022/08/28 03:38:58;;;;;;;2.00;1.80;;;22.10;75.60;;;;;;5048712;28;20495;-62
2022/08/28 03:41:27;;;;;;;3.22;2.15;;;22.10;75.30;;;;;;5050533;28;20350;-63
2022/08/28 03:43:56;;;;;;;3.47;2.47;;;22.10;75.30;;;;;;5047387;28;20108;-63
2022/08/28 03:46:23;;;;;;;2.53;2.33;;;22.10;75.40;;;;;;5051497;28;20049;-63
2022/08/28 03:48:50;;;;;;;3.50;2.40;;;22.20;75.40;;;;;;5050078;28;20040;-63
2022/08/28 03:51:18;;;;;;;2.88;2.20;;;22.20;75.50;;;;;;5050199;28;20021;-62
2022/08/28 03:53:44;;;;;;;3.90;2.13;;;22.20;75.40;;;;;;5033752;28;20103;-62
2022/08/28 03:56:16;;;;;;;6.18;2.58;;;22.20;75.40;;;;;;5049758;28;20025;-62
2022/08/28 03:58:42;;;;;;;3.88;2.88;;;22.10;75.40;;;;;;5050739;28;20099;-62
2022/08/28 04:01:08;;;;;;;2.50;2.30;;;22.10;75.30;;;;;;5051711;28;20017;-63
2022/08/28 04:03:34;;;;;;;3.35;2.70;;;22.10;75.50;;;;;;5042430;28;20108;-62
2022/08/28 04:06:00;;;;;;;3.30;2.38;;;22.10;75.50;;;;;;5050104;28;20057;-62
2022/08/28 04:08:26;;;;;;;5.25;2.50;;;22.10;75.50;;;;;;5050426;28;20068;-63
2022/08/28 04:10:52;;;;;;;4.55;2.50;;;22.10;75.40;;;;;;5053936;28;20108;-63
2022/08/28 04:13:20;;;;;;;2.63;2.35;;;22.10;75.40;;;;;;5030828;28;20032;-63
2022/08/28 04:15:54;;;;;;;3.40;2.47;;;22.00;75.30;;;;;;5044042;28;20039;-63
2022/08/28 04:18:20;;;;;;;3.53;2.75;;;22.00;75.30;;;;;;5051977;28;20045;-62
2022/08/28 04:20:45;;;;;;;3.72;2.80;;;22.00;75.30;;;;;;5050373;28;20444;-62
2022/08/28 04:23:11;;;;;;;3.22;2.80;;;22.00;75.30;;;;;;5051698;28;20387;-63
2022/08/28 04:25:39;;;;;;;3.78;2.58;;;21.90;75.20;;;;;;5043496;28;20048;-63
2022/08/28 04:28:05;;;;;;;3.50;2.88;;;21.90;75.30;;;;;;5051511;28;20049;-63
2022/08/28 04:30:30;;;;;;;3.53;2.60;;;21.90;75.30;;;;;;5051712;28;20072;-62
2022/08/28 04:32:56;;;;;;;3.25;2.45;;;21.90;75.30;;;;;;5051876;28;20131;-63
2022/08/28 04:35:22;;;;;;;4.18;2.97;;;21.90;75.30;;;;;;5051491;28;20524;-62
2022/08/28 04:37:48;;;;;;;2.88;2.58;;;22.00;75.40;;;;;;5050811;28;20017;-62
2022/08/28 04:40:14;;;;;;;3.17;2.42;;;22.00;75.30;;;;;;5052153;28;20444;-63
2022/08/28 04:42:41;;;;;;;2.90;2.47;;;22.00;75.40;;;;;;5052660;28;20053;-63
2022/08/28 04:45:07;;;;;;;2.75;2.50;;;22.00;75.20;;;;;;5054003;28;20033;-63
2022/08/28 04:47:37;;;;;;;3.38;2.30;;;22.00;75.30;;;;;;5054627;28;20412;-62
2022/08/28 04:50:05;;;;;;;3.05;2.30;;;22.00;75.30;;;;;;5054569;28;20032;-63
2022/08/28 04:52:31;;;;;;;3.05;2.42;;;22.00;75.50;;;;;;5055537;28;20025;-63
2022/08/28 04:54:57;;;;;;;3.03;2.55;;;22.00;75.40;;;;;;5051995;28;20036;-63
2022/08/28 04:57:22;;;;;;;3.65;2.50;;;22.00;75.50;;;;;;5055969;28;20028;-62
2022/08/28 04:59:48;;;;;;;2.53;2.33;;;22.10;75.60;;;;;;5053936;28;20033;-63
2022/08/28 05:02:14;;;;;;;3.03;2.40;;;22.10;75.50;;;;;;5044393;28;20380;-63
2022/08/28 05:04:39;;;;;;;2.88;2.20;;;22.10;75.60;;;;;;5050895;28;20033;-63
2022/08/28 05:07:05;;;;;;;2.83;2.53;;;22.10;75.60;;;;;;5043598;28;20083;-62
2022/08/28 05:09:31;;;;;;;3.13;2.20;;;22.10;75.70;;;;;;5046367;28;20068;-63
2022/08/28 05:12:04;;;;;;;5.53;2.88;;;22.10;75.50;;;;;;5056137;28;20028;-62
2022/08/28 05:14:29;;;;;;;4.47;2.50;;;22.10;75.40;;;;;;5054118;28;20036;-63
2022/08/28 05:16:56;;;;;;;3.40;2.38;;;22.10;75.40;;;;;;5051080;28;20021;-63
2022/08/28 05:19:23;;;;;;;4.70;3.03;;;22.10;75.60;;;;;;5053204;28;20037;-63
2022/08/28 05:21:50;;;;;;;3.40;2.78;;;22.10;75.50;;;;;;5055062;28;20086;-62
2022/08/28 05:24:16;;;;;;;3.33;2.80;;;22.10;75.70;;;;;;5048963;28;20112;-63
2022/08/28 05:26:42;;;;;;;4.15;2.72;;;22.10;75.60;;;;;;5054397;28;20036;-63
2022/08/28 05:29:08;;;;;;;4.10;2.65;;;22.10;75.80;;;;;;5053626;28;20032;-61
2022/08/28 05:31:36;;;;;;;2.70;2.50;;;22.10;75.80;;;;;;5053597;28;20066;-62
2022/08/28 05:34:03;;;;;;;3.75;2.92;;;22.00;75.80;;;;;;5052599;28;20044;-62
2022/08/28 05:36:33;;;;;;;3.17;2.50;;;22.10;76.00;;;;;;5035789;28;20045;-61
2022/08/28 05:38:59;;;;;;;3.38;2.55;;;22.00;75.90;;;;;;5050191;28;20021;-63
2022/08/28 05:41:28;;;;;;;3.75;2.30;;;22.10;76.00;;;;;;5045911;28;20021;-62
2022/08/28 05:43:53;;;;;;;3.85;2.70;;;22.10;76.00;;;;;;5054134;28;20071;-61
2022/08/28 05:46:21;;;;;;;4.20;2.90;;;22.10;75.90;;;;;;5018908;28;20037;-60
2022/08/28 05:48:48;;;;;;;3.33;2.28;;;22.10;75.90;;;;;;5050743;28;20366;-61
2022/08/28 05:51:18;;;;;;;2.78;2.30;;;22.10;76.00;;;;;;5053694;28;20059;-61
2022/08/28 05:53:45;;;;;;;2.70;2.40;;;22.20;76.00;;;;;;5033575;28;20468;-60
2022/08/28 05:56:14;;;;;;;2.70;2.45;;;22.20;76.00;;;;;;5053191;28;20029;-60
2022/08/28 05:58:40;;;;;;;3.85;2.53;;;22.20;75.90;;;;;;5053318;28;20024;-61
2022/08/28 06:01:27;;;;;;;3.17;2.67;;;22.20;76.00;;;;;;5051969;28;20029;-62
2022/08/28 06:03:58;;;;;;;3.22;2.70;;;22.20;76.00;;;;;;5042424;28;20033;-61
2022/08/28 06:06:26;;;;;;;4.43;3.10;;;22.30;76.00;;;;;;5047878;28;20041;-63
2022/08/28 06:08:57;;;;;;;3.63;2.55;;;22.30;76.00;;;;;;5051541;28;20390;-63
2022/08/28 06:11:22;;;;;;;4.60;2.40;;;22.30;75.80;;;;;;5052570;28;20021;-60
2022/08/28 06:13:48;;;;;;;4.05;2.63;;;22.30;75.90;;;;;;5050430;28;20025;-60
2022/08/28 06:16:14;;;;;;;2.53;2.33;;;22.40;76.00;;;;;;5049736;28;20029;-61
2022/08/28 06:18:40;;;;;;;3.75;2.55;;;22.40;76.00;;;;;;5052906;28;20024;-60
2022/08/28 06:21:06;;;;;;;3.72;2.83;;;22.50;76.00;;;;;;5053041;28;20420;-63
2022/08/28 06:23:32;;;;;;;3.50;2.30;;;22.60;75.90;;;;;;5052748;28;20029;-64
2022/08/28 06:25:58;;;;;;;3.53;2.67;;;22.70;76.50;;;;;;5049541;28;20032;-63
2022/08/28 06:28:26;;;;;;;2.83;2.22;;;22.70;76.50;;;;;;5053357;28;20498;-63
2022/08/28 06:30:53;;;;;;;4.28;2.55;;;22.80;75.60;;;;;;5053217;28;20161;-63
2022/08/28 06:33:20;;;;;;;2.72;2.50;;;22.90;75.60;;;;;;5053506;28;20029;-62
2022/08/28 06:35:49;;;;;;;4.40;3.03;;;22.90;75.60;;;;;;5053104;28;20049;-61
2022/08/28 06:38:16;;;;;;;2.70;2.42;;;23.00;75.70;;;;;;5049572;28;20053;-62
2022/08/28 06:40:45;;;;;;;4.05;3.00;;;23.10;75.70;;;;;;5053288;28;20086;-63
2022/08/28 06:43:11;;;;;;;3.50;2.47;;;23.20;75.70;;;;;;5053049;28;20040;-63
2022/08/28 06:45:42;;;;;;;3.30;2.45;;;23.30;75.80;;;;;;5033099;28;20388;-62
2022/08/28 06:48:09;;;;;;;3.35;2.45;;;23.40;75.60;;;;;;5034444;28;20037;-64
2022/08/28 06:50:39;;;;;;;4.03;2.55;;;23.50;75.50;;;;;;5050901;28;20028;-61
2022/08/28 06:53:07;;;;;;;3.85;2.95;;;23.60;75.50;;;;;;5048957;28;20139;-63
2022/08/28 06:55:33;;;;;;;3.85;2.65;;;23.70;75.20;;;;;;5048584;28;20124;-60
2022/08/28 06:57:59;;;;;;;4.35;2.60;;;23.80;75.10;;;;;;5044826;28;20100;-63
2022/08/28 07:00:25;;;;;;;3.65;2.95;;;23.90;75.00;;;;;;5054577;28;20033;-63
2022/08/28 07:02:50;;;;;;;4.80;2.80;;;24.00;75.00;;;;;;5050389;28;20029;-63
2022/08/28 07:05:16;;;;;;;3.92;2.80;;;24.00;74.80;;;;;;5050982;28;20033;-63
2022/08/28 07:07:42;;;;;;;3.20;2.47;;;24.10;74.60;;;;;;5053054;28;20064;-63
2022/08/28 07:10:08;;;;;;;4.18;2.90;;;24.10;74.40;;;;;;5051587;28;20023;-63
2022/08/28 07:12:34;;;;;;;3.50;2.50;;;24.20;74.60;;;;;;5053675;28;20021;-63
2022/08/28 07:15:02;;;;;;;3.65;2.70;;;24.20;74.40;;;;;;5051049;28;20548;-63
2022/08/28 07:17:27;;;;;;;3.35;2.72;;;24.30;74.40;;;;;;5052306;28;20065;-63
2022/08/28 07:19:53;;;;;;;4.03;3.03;;;24.40;74.30;;;;;;5045755;28;20432;-63
2022/08/28 07:22:19;;;;;;;4.85;2.78;;;24.40;74.10;;;;;;5047510;28;20037;-64
2022/08/28 07:24:44;;;;;;;3.45;3.08;;;24.50;74.10;;;;;;5051086;28;20021;-63
2022/08/28 07:27:10;;;;;;;4.85;3.10;;;24.50;73.90;;;;;;5062174;28;20021;-60
2022/08/28 07:29:36;;;;;;;4.07;3.10;;;24.60;73.90;;;;;;5050873;28;20021;-61
2022/08/28 07:32:02;;;;;;;3.47;2.90;;;24.60;73.90;;;;;;5051991;28;20021;-60
2022/08/28 07:34:28;;;;;;;3.55;3.03;;;24.60;74.40;;;;;;5045209;28;20481;-61
2022/08/28 07:36:55;;;;;;;5.93;2.97;;;24.60;73.90;;;;;;5051897;28;20108;-64
2022/08/28 07:39:20;;;;;;;5.57;3.20;;;24.60;74.00;;;;;;5051544;28;20464;-64
2022/08/28 07:41:47;;;;;;;4.35;2.80;;;24.70;73.80;;;;;;5052157;28;20074;-64
2022/08/28 07:47:04;;;;;;;3.25;2.63;;;24.80;73.50;;;;;;5047803;28;20507;-64
2022/08/28 07:49:32;;;;;;;4.18;2.92;;;24.80;73.30;;;;;;5050957;28;20021;-63
2022/08/28 07:51:58;;;;;;;3.22;2.42;;;24.80;73.40;;;;;;5043242;28;20100;-64
2022/08/28 07:54:23;;;;;;;3.30;2.80;;;24.90;73.40;;;;;;5044582;28;20481;-64
2022/08/28 07:56:50;;;;;;;3.65;2.80;;;24.90;73.20;;;;;;5048097;28;20363;-64
2022/08/28 07:59:16;;;;;;;3.42;2.53;;;24.90;73.00;;;;;;5044110;28;20021;-64
2022/08/28 08:01:45;;;;;;;4.20;2.60;;;25.00;73.00;;;;;;5053571;28;20044;-64
2022/08/28 08:04:12;;;;;;;3.72;2.60;;;25.00;72.80;;;;;;5050483;28;20048;-64
2022/08/28 08:06:40;;;;;;;4.63;3.08;;;25.00;72.70;;;;;;5046126;28;20112;-64
2022/08/28 08:09:08;;;;;;;3.38;2.75;;;25.10;72.50;;;;;;5053803;28;20373;-63
2022/08/28 08:11:34;;;;;;;3.42;2.55;;;25.00;72.30;;;;;;5051787;28;20480;-64
2022/08/28 08:14:03;;;;;;;4.82;3.50;;;25.10;72.20;;;;;;5051085;28;20013;-64
2022/08/28 08:16:29;;;;;;;3.65;2.83;;;25.00;72.30;;;;;;5053928;28;20024;-64
2022/08/28 08:18:56;;;;;;;2.75;2.38;;;25.00;72.30;;;;;;5052957;28;20029;-59
2022/08/28 08:21:22;;;;;;;3.33;2.60;;;25.00;72.30;;;;;;5040076;28;20028;-61
2022/08/28 08:23:48;;;;;;;3.92;3.05;;;24.90;72.20;;;;;;5033783;28;20055;-64
2022/08/28 08:26:21;;;;;;;3.85;2.70;;;24.90;72.10;;;;;;5055080;28;20017;-60
2022/08/28 08:28:47;;;;;;;3.28;2.63;;;24.90;72.30;;;;;;5037851;28;20074;-63
2022/08/28 08:31:20;;;;;;;2.63;2.30;;;24.80;72.10;;;;;;5055537;28;20381;-64
2022/08/28 08:33:49;;;;;;;3.70;2.65;;;24.80;72.20;;;;;;5051185;28;20014;-63
2022/08/28 08:36:17;;;;;;;3.50;2.47;;;24.80;72.30;;;;;;5049092;28;20049;-64
2022/08/28 08:38:44;;;;;;;3.95;2.72;;;24.80;72.30;;;;;;5049500;28;20025;-63
2022/08/28 08:41:28;;;;;;;2.80;2.60;;;24.80;72.20;;;;;;5054050;28;20477;-64
2022/08/28 08:44:08;;;;;;;4.30;2.63;;;24.80;72.20;;;;;;5053813;28;20111;-64
2022/08/28 08:46:42;;;;;;;3.88;2.35;;;24.70;72.00;;;;;;5053551;28;20025;-62
2022/08/28 08:49:17;;;;;;;2.40;2.20;;;24.70;72.10;;;;;;5047691;28;20033;-63
2022/08/28 08:51:46;;;;;;;2.67;2.28;;;24.70;72.10;;;;;;5050583;28;20098;-62
2022/08/28 08:54:16;;;;;;;2.78;2.40;;;24.70;72.10;;;;;;5049336;28;20024;-62
2022/08/28 08:56:43;;;;;;;3.20;2.40;;;24.60;72.20;;;;;;5057820;28;20066;-63
2022/08/28 08:59:17;;;;;;;4.38;2.25;;;24.60;72.30;;;;;;5047083;28;20040;-64
2022/08/28 09:01:54;;;;;;;2.70;2.22;;;24.60;72.40;;;;;;5052431;28;20552;-63
2022/08/28 09:04:50;;;;;;;3.30;2.20;;;24.60;72.40;;;;;;5048603;28;20572;-61
2022/08/28 09:07:20;;;;;;;2.35;2.15;;;24.70;72.20;;;;;;5046309;28;20114;-62
2022/08/28 09:09:51;;;;;;;2.60;2.40;;;24.70;72.20;;;;;;5054491;28;20162;-63
2022/08/28 09:12:56;;;;;;;3.28;2.45;;;24.80;72.00;;;;;;5054019;28;20382;-62
2022/08/28 09:15:26;;;;;;;3.10;2.42;;;24.80;72.00;;;;;;5053695;28;20059;-61
2022/08/28 09:18:09;;;;;;;2.75;2.50;;;24.80;72.00;;;;;;5050876;28;20025;-61
2022/08/28 09:20:35;;;;;;;2.65;2.03;;;24.80;71.90;;;;;;5040828;28;20737;-63
2022/08/28 09:23:01;;;;;;;2.65;2.38;;;24.80;71.80;;;;;;5053131;28;20108;-63
2022/08/28 09:25:48;;;;;;;3.30;2.42;;;24.80;71.70;;;;;;5052515;28;20033;-63
2022/08/28 09:28:19;;;;;;;4.82;2.38;;;24.80;71.70;;;;;;5042410;28;20557;-63
2022/08/28 09:30:53;;;;;;;2.65;2.45;;;24.90;71.60;;;;;;5052997;28;20025;-61
2022/08/28 09:33:41;;;;;;;3.33;2.38;;;24.90;71.60;;;;;;5045312;28;20067;-60
2022/08/28 09:36:28;;;;;;;2.40;2.20;;;24.90;71.40;;;;;;5044225;28;20173;-63
2022/08/28 09:39:17;;;;;;;4.40;2.33;;;24.90;71.30;;;;;;5054227;28;20036;-63
2022/08/28 09:44:53;;;;;;;3.13;2.15;;;24.80;71.30;;;;;;5042559;28;20036;-63
2022/08/28 09:47:43;;;;;;;2.63;2.22;;;24.90;71.30;;;;;;5051455;28;20017;-63
2022/08/28 09:50:20;;;;;;;2.22;2.03;;;24.80;71.30;;;;;;5052663;28;20052;-60
2022/08/28 09:52:46;;;;;;;2.90;2.05;;;24.80;71.20;;;;;;5045272;28;20021;-63
2022/08/28 09:55:20;;;;;;;3.35;2.33;;;24.80;71.20;;;;;;5055678;28;20025;-63
2022/08/28 09:57:46;;;;;;;3.88;2.13;;;24.80;71.10;;;;;;5059268;28;20116;-63
2022/08/28 10:00:13;;;;;;;4.43;2.25;;;24.80;71.00;;;;;;5054048;28;20518;-64
2022/08/28 10:03:05;;;;;;;2.92;2.40;;;24.80;71.00;;;;;;5053454;28;20032;-63
2022/08/28 10:05:40;;;;;;;5.75;2.60;;;24.80;70.90;;;;;;5043571;28;20047;-62
2022/08/28 10:08:33;;;;;;;2.80;2.40;;;24.80;70.70;;;;;;5055635;28;20079;-63
2022/08/28 10:11:10;;;;;;;3.97;2.30;;;24.80;70.80;;;;;;5018908;28;20048;-64
2022/08/28 10:13:53;;;;;;;3.67;2.20;;;24.80;70.80;;;;;;5054955;28;20464;-63
2022/08/28 10:16:34;;;;;;;2.20;2.00;;;24.80;70.60;;;;;;5046806;28;20055;-64
2022/08/28 10:19:12;;;;;;;2.47;1.92;;;24.80;70.90;;;;;;5050134;28;20076;-64
2022/08/28 10:21:57;;;;;;;2.70;2.08;;;24.80;70.70;;;;;;5044371;28;20024;-63
2022/08/28 10:25:02;;;;;;;3.13;2.10;;;24.80;70.60;;;;;;5051867;28;20476;-62
2022/08/28 10:27:40;;;;;;;2.30;2.10;;;24.80;70.40;;;;;;5049003;28;20440;-60
2022/08/28 10:30:06;;;;;;;4.03;2.15;;;24.80;70.20;;;;;;5053397;28;20083;-61
2022/08/28 10:33:10;;;;;;;3.13;1.95;;;24.80;70.10;;;;;;5053457;28;20024;-60
2022/08/28 10:35:51;;;;;;;2.60;2.10;;;24.80;70.00;;;;;;5052140;28;20060;-61
2022/08/28 10:38:43;;;;;;;3.92;2.20;;;24.90;69.90;;;;;;5053030;28;20037;-63
2022/08/28 10:41:17;;;;;;;2.33;2.00;;;24.90;69.80;;;;;;5048184;28;20041;-63
2022/08/28 10:43:48;;;;;;;2.80;2.28;;;24.90;69.80;;;;;;5048452;28;20041;-61
2022/08/28 10:46:26;;;;;;;2.50;2.30;;;24.90;69.60;;;;;;5052875;28;20033;-63
2022/08/28 10:48:58;;;;;;;2.05;1.90;;;24.90;69.40;;;;;;5051950;28;20017;-60
2022/08/28 10:51:38;;;;;;;3.72;2.75;;;24.90;69.30;;;;;;5050239;28;20029;-63
2022/08/28 10:54:52;;;;;;;3.08;2.50;;;24.90;69.10;;;;;;5013458;28;20025;-62
2022/08/28 10:57:35;;;;;;;4.10;2.45;;;24.90;68.90;;;;;;4996135;28;20044;-63
2022/08/28 11:00:15;;;;;;;3.28;2.35;;;24.90;69.10;;;;;;5031986;28;20029;-63
2022/08/28 11:02:45;;;;;;;2.72;2.08;;;24.90;69.30;;;;;;5041386;28;20493;-63
2022/08/28 11:05:11;;;;;;;;;;;24.90;69.30;;;;;;5043389;28;20477;-63
2022/08/28 11:07:43;;;;;;;2.88;2.17;;;24.90;69.40;;;;;;5048447;28;19966;-62
2022/08/28 11:10:47;;;;;;;2.42;2.20;;;24.90;69.40;;;;;;5043207;28;20033;-62
2022/08/28 11:13:45;;;;;;;4.60;2.30;;;24.90;69.40;;;;;;5032543;28;20021;-62
2022/08/28 11:16:29;;;;;;;3.03;2.70;;;24.90;69.50;;;;;;5043246;28;20028;-63
2022/08/28 11:19:16;;;;;;;3.50;2.40;;;24.90;69.50;;;;;;5044338;28;20029;-60
2022/08/28 11:21:54;;;;;;;4.38;2.60;;;24.90;70.10;;;;;;5049873;28;20032;-63
2022/08/28 11:24:58;;;;;;;4.20;2.40;;;24.90;69.40;;;;;;5049642;28;20113;-62
2022/08/28 11:27:30;;;;;;;5.72;2.60;;;24.90;69.10;;;;;;4991891;28;20047;-61
2022/08/28 11:29:56;;;;;;;3.90;2.55;;;24.90;69.40;;;;;;5049814;28;20017;-60
2022/08/28 11:32:33;;;;;;;2.35;2.15;;;24.90;69.50;;;;;;5049842;28;20040;-63
2022/08/28 11:35:03;;;;;;;2.97;2.30;;;24.90;69.50;;;;;;5042293;28;20526;-61
2022/08/28 11:37:39;;;;;;;2.83;2.30;;;24.90;69.50;;;;;;5050627;28;20025;-62
2022/08/28 11:40:39;;;;;;;5.05;3.20;;;24.90;69.60;;;;;;5049975;28;20065;-63
2022/08/28 11:43:14;;;;;;;3.08;2.50;;;24.90;69.70;;;;;;5041942;28;20037;-61
2022/08/28 11:45:44;;;;;;;4.78;2.67;;;24.90;69.80;;;;;;5045943;28;20102;-61
2022/08/28 11:48:21;;;;;;;5.27;2.80;;;25.00;69.90;;;;;;5049953;28;20045;-64
2022/08/28 11:51:02;;;;;;;2.67;2.33;;;25.00;70.00;;;;;;5047854;28;20031;-63
2022/08/28 11:54:01;;;;;;;3.15;2.50;;;25.00;70.00;;;;;;5049006;28;20071;-62
2022/08/28 11:56:52;;;;;;;2.72;2.17;;;25.00;70.10;;;;;;5051696;28;20388;-62
2022/08/28 11:59:35;;;;;;;2.95;2.53;;;25.00;70.20;;;;;;5050868;28;20112;-64
2022/08/28 12:02:37;;;;;;;3.13;2.40;;;25.00;70.10;;;;;;5050278;28;20461;-62
2022/08/28 12:05:08;;;;;;;2.95;2.15;;;25.00;70.10;;;;;;5049492;28;20021;-63
2022/08/28 12:07:39;;;;;;;3.47;2.17;;;25.00;70.20;;;;;;5052021;28;20031;-64
2022/08/28 12:10:29;;;;;;;2.67;2.40;;;25.00;70.00;;;;;;5050224;28;20108;-61
2022/08/28 12:13:01;;;;;;;3.37;2.00;;;25.00;70.10;;;;;;5042870;28;20052;-62
2022/08/28 12:15:27;;;;;;;3.30;2.42;;;25.00;70.20;;;;;;5048220;28;20048;-63
2022/08/28 12:17:57;;;;;;;5.15;2.83;;;25.00;70.20;;;;;;5050961;28;20029;-62
2022/08/28 12:20:32;;;;;;;3.20;2.60;;;25.00;70.20;;;;;;5032952;28;20033;-64
2022/08/28 12:23:02;;;;;;;2.78;2.30;;;25.00;70.00;;;;;;5048226;28;20033;-60
2022/08/28 12:25:38;;;;;;;2.83;2.47;;;25.00;70.10;;;;;;5049638;28;20598;-60
2022/08/28 12:28:21;;;;;;;2.92;2.53;;;25.00;70.00;;;;;;5049869;28;20357;-64
2022/08/28 12:34:44;;;;;;;2.72;2.45;;;25.00;69.80;;;;;;5048698;28;20317;-63
2022/08/28 12:37:28;;;;;;;3.08;2.42;;;25.00;69.90;;;;;;5043570;28;20385;-63
2022/08/28 12:39:57;;;;;;;3.70;2.42;;;25.00;69.90;;;;;;5050331;28;20112;-62
2022/08/28 12:42:31;;;;;;;3.03;2.60;;;25.00;69.90;;;;;;5051025;28;20021;-64
2022/08/28 12:45:07;;;;;;;4.70;2.60;;;25.10;70.10;;;;;;5046492;28;20041;-64
2022/08/28 12:47:34;;;;;;;3.65;2.40;;;25.10;70.10;;;;;;5048786;28;20021;-63
2022/08/28 12:50:20;;;;;;;3.90;2.60;;;25.10;70.20;;;;;;5050691;28;20329;-63
2022/08/28 12:52:51;;;;;;;4.05;2.50;;;25.10;70.10;;;;;;5040394;28;20055;-62
2022/08/28 12:55:18;;;;;;;3.78;2.65;;;25.10;70.20;;;;;;5048914;28;20496;-62
2022/08/28 12:57:46;;;;;;;3.28;2.58;;;25.10;70.30;;;;;;5045717;28;20060;-62
2022/08/28 13:00:18;;;;;;;4.43;2.63;;;25.20;70.20;;;;;;5055574;28;20025;-63
2022/08/28 13:02:44;;;;;;;4.97;2.63;;;25.20;70.20;;;;;;5052896;28;20055;-63
2022/08/28 13:05:22;;;;;;;3.15;2.40;;;25.20;70.20;;;;;;5052994;28;20075;-63
2022/08/28 13:07:52;;;;;;;2.83;2.28;;;25.20;70.20;;;;;;5053989;28;20034;-62
2022/08/28 13:10:37;;;;;;;2.55;2.35;;;25.20;70.10;;;;;;5054364;28;20037;-64
2022/08/28 13:13:16;;;;;;;2.83;2.42;;;25.20;70.10;;;;;;5055098;28;20025;-63
2022/08/28 13:15:50;;;;;;;4.10;2.53;;;25.30;70.10;;;;;;5044308;28;20358;-62
2022/08/28 13:18:52;;;;;;;3.05;2.28;;;25.30;70.10;;;;;;5033040;28;20124;-63
2022/08/28 13:21:18;;;;;;;2.17;1.90;;;25.30;69.90;;;;;;5053899;28;20067;-63
2022/08/28 13:23:50;;;;;;;2.17;1.88;;;25.30;70.00;;;;;;5052294;28;20060;-64